Time;durP1;ratioP1;P1;durP2;ratioP2;P2;SDS_P1;SDS_P2;PMS_P1;PMS_P2;Temp;Humidity;BMP_temperature;BMP_pressure;BME280_temperature;BME280_humidity;BME280_pressure;Samples;Min_cycle;Max_cycle;Signal;HPM_P1;HPM_P2
2021/03/23 00:00:55;;;;;;;8.95;6.75;;;;;;;;;;4954779;29;20277;-78
2021/03/23 00:03:23;;;;;;;13.50;7.18;;;;;;;;;;4954698;29;20167;-78
2021/03/23 00:05:50;;;;;;;11.90;7.65;;;;;;;;;;4954767;29;20174;-76
2021/03/23 00:08:36;;;;;;;8.45;6.25;;;;;;;;;;4954524;29;20206;-76
2021/03/23 00:11:05;;;;;;;10.13;7.18;;;;;;;;;;4954554;29;20179;-77
2021/03/23 00:13:31;;;;;;;10.80;6.43;;;;;;;;;;4954530;29;20171;-76
2021/03/23 00:15:57;;;;;;;9.95;6.95;;;;;;;;;;4954221;29;20531;-76
2021/03/23 00:18:23;;;;;;;14.13;7.18;;;;;;;;;;4954436;29;20173;-76
2021/03/23 00:20:49;;;;;;;11.80;7.40;;;;;;;;;;4954464;29;20214;-77
2021/03/23 00:23:15;;;;;;;9.63;6.67;;;;;;;;;;4954191;29;20509;-80
2021/03/23 00:25:41;;;;;;;10.87;6.93;;;;;;;;;;4953808;29;20456;-76
2021/03/23 00:31:11;;;;;;;9.10;6.85;;;;;;;;;;4954657;29;20208;-77
2021/03/23 00:33:37;;;;;;;9.68;6.30;;;;;;;;;;4954401;29;20170;-75
2021/03/23 00:36:03;;;;;;;12.40;6.43;;;;;;;;;;4953694;29;20171;-79
2021/03/23 00:38:30;;;;;;;9.95;6.05;;;;;;;;;;4954272;29;20422;-77
2021/03/23 00:40:56;;;;;;;12.02;6.07;;;;;;;;;;4953976;29;20566;-79
2021/03/23 00:46:25;;;;;;;11.40;6.38;;;;;;;;;;4954492;29;20681;-79
2021/03/23 00:48:51;;;;;;;9.63;6.70;;;;;;;;;;4954250;29;20253;-76
2021/03/23 00:51:17;;;;;;;8.70;7.60;;;;;;;;;;4953971;29;20298;-76
2021/03/23 00:53:43;;;;;;;11.00;7.70;;;;;;;;;;4953976;29;20517;-77
2021/03/23 00:56:09;;;;;;;9.52;7.57;;;;;;;;;;4953835;29;20218;-78
2021/03/23 01:01:39;;;;;;;8.85;6.80;;;;;;;;;;4953911;29;20578;-76
2021/03/23 01:04:05;;;;;;;14.05;7.63;;;;;;;;;;4954035;29;20721;-77
2021/03/23 01:06:31;;;;;;;10.77;6.40;;;;;;;;;;4953985;29;20542;-76
2021/03/23 01:08:57;;;;;;;11.20;7.67;;;;;;;;;;4953627;29;20170;-75
2021/03/23 01:11:23;;;;;;;14.17;8.20;;;;;;;;;;4953785;29;20481;-78
2021/03/23 01:13:49;;;;;;;8.80;6.50;;;;;;;;;;4953985;29;20423;-76
2021/03/23 01:16:15;;;;;;;10.63;7.18;;;;;;;;;;4953753;29;20493;-77
2021/03/23 01:18:41;;;;;;;10.38;6.80;;;;;;;;;;4953804;29;20260;-75
2021/03/23 01:21:07;;;;;;;10.87;7.07;;;;;;;;;;4953682;29;20300;-77
2021/03/23 01:23:33;;;;;;;12.13;7.23;;;;;;;;;;4953691;29;20477;-76
2021/03/23 01:25:59;;;;;;;13.57;8.57;;;;;;;;;;4953941;29;20520;-76
2021/03/23 01:31:28;;;;;;;14.45;9.05;;;;;;;;;;4954118;29;20182;-78
2021/03/23 01:33:54;;;;;;;14.85;9.27;;;;;;;;;;4936805;29;20750;-77
2021/03/23 01:36:20;;;;;;;13.50;7.93;;;;;;;;;;4955948;28;20180;-75
2021/03/23 01:38:46;;;;;;;14.57;8.68;;;;;;;;;;4957297;29;20435;-78
2021/03/23 01:41:12;;;;;;;15.57;8.57;;;;;;;;;;4957330;29;20201;-77
2021/03/23 01:46:46;;;;;;;14.60;8.55;;;;;;;;;;4957313;29;20452;-76
2021/03/23 01:49:21;;;;;;;12.68;8.73;;;;;;;;;;4957164;29;20173;-76
2021/03/23 01:51:48;;;;;;;15.65;8.35;;;;;;;;;;4956850;29;20232;-75
2021/03/23 01:54:21;;;;;;;13.00;8.88;;;;;;;;;;4956976;29;20179;-78
2021/03/23 01:56:49;;;;;;;12.18;8.38;;;;;;;;;;4957078;29;20182;-74
2021/03/23 01:59:15;;;;;;;14.65;10.07;;;;;;;;;;4956862;29;20272;-76
2021/03/23 02:01:41;;;;;;;12.88;8.77;;;;;;;;;;4956962;29;20260;-76
2021/03/23 02:04:07;;;;;;;14.43;9.82;;;;;;;;;;4957010;29;20626;-77
2021/03/23 02:06:41;;;;;;;16.67;9.38;;;;;;;;;;4956761;29;20658;-76
2021/03/23 02:09:10;;;;;;;16.45;9.27;;;;;;;;;;4956700;29;20173;-79
2021/03/23 02:11:40;;;;;;;17.55;8.63;;;;;;;;;;4957050;29;20167;-76
2021/03/23 02:14:07;;;;;;;12.38;9.00;;;;;;;;;;4956406;29;20170;-76
2021/03/23 02:16:33;;;;;;;16.15;9.48;;;;;;;;;;4956808;29;20579;-77
2021/03/23 02:18:59;;;;;;;13.10;8.80;;;;;;;;;;4956652;29;20632;-77
2021/03/23 02:21:25;;;;;;;14.68;8.82;;;;;;;;;;4956622;29;20214;-77
2021/03/23 02:23:52;;;;;;;16.30;9.23;;;;;;;;;;4956373;29;20745;-79
2021/03/23 02:26:20;;;;;;;13.10;8.57;;;;;;;;;;4956535;29;20430;-76
2021/03/23 02:31:51;;;;;;;13.98;9.15;;;;;;;;;;4957137;29;20181;-75
2021/03/23 02:34:19;;;;;;;14.02;9.18;;;;;;;;;;4956737;29;20671;-77
2021/03/23 02:36:46;;;;;;;16.65;10.63;;;;;;;;;;4956213;29;20176;-77
2021/03/23 02:39:13;;;;;;;16.98;9.60;;;;;;;;;;4956133;29;20533;-76
2021/03/23 02:41:40;;;;;;;19.10;10.23;;;;;;;;;;4956140;29;20220;-75
2021/03/23 02:44:06;;;;;;;14.68;10.35;;;;;;;;;;4956068;29;20173;-77
2021/03/23 02:46:32;;;;;;;18.50;10.40;;;;;;;;;;4955788;28;20174;-77
2021/03/23 02:48:58;;;;;;;16.87;11.40;;;;;;;;;;4955571;29;20181;-81
2021/03/23 02:51:24;;;;;;;17.38;11.10;;;;;;;;;;4955838;29;20486;-77
2021/03/23 02:53:50;;;;;;;16.77;10.80;;;;;;;;;;4955165;29;20171;-76
2021/03/23 02:56:17;;;;;;;18.13;11.80;;;;;;;;;;4956044;29;20182;-76
2021/03/23 03:01:46;;;;;;;22.17;12.55;;;;;;;;;;4955953;29;20232;-76
2021/03/23 03:04:12;;;;;;;19.65;12.10;;;;;;;;;;4938521;29;20183;-75
2021/03/23 03:06:38;;;;;;;20.50;12.10;;;;;;;;;;4955497;29;20261;-77
2021/03/23 03:09:06;;;;;;;25.77;13.38;;;;;;;;;;4955717;29;20542;-79
2021/03/23 03:11:32;;;;;;;20.15;13.07;;;;;;;;;;4955665;29;20248;-75
2021/03/23 03:17:01;;;;;;;22.25;13.95;;;;;;;;;;4955591;29;20560;-79
2021/03/23 03:19:27;;;;;;;27.20;14.45;;;;;;;;;;4955565;29;20186;-77
2021/03/23 03:21:53;;;;;;;24.85;14.57;;;;;;;;;;4955250;29;20222;-76
2021/03/23 03:24:19;;;;;;;24.33;15.45;;;;;;;;;;4955285;29;20300;-79
2021/03/23 03:26:45;;;;;;;29.42;15.43;;;;;;;;;;4955409;29;20260;-80
2021/03/23 03:32:15;;;;;;;24.63;13.10;;;;;;;;;;4955633;29;20214;-75
2021/03/23 03:34:41;;;;;;;21.73;12.85;;;;;;;;;;4955191;29;20166;-78
2021/03/23 03:37:08;;;;;;;21.03;12.70;;;;;;;;;;4954996;29;20338;-76
2021/03/23 03:39:34;;;;;;;20.25;12.57;;;;;;;;;;4954854;29;20484;-76
2021/03/23 03:42:00;;;;;;;20.63;12.70;;;;;;;;;;4954947;29;20293;-78
2021/03/23 03:44:26;;;;;;;21.73;12.95;;;;;;;;;;4955064;29;20423;-75
2021/03/23 03:46:52;;;;;;;25.23;10.55;;;;;;;;;;4954914;29;20300;-76
2021/03/23 03:49:18;;;;;;;17.20;10.20;;;;;;;;;;4955122;29;20176;-75
2021/03/23 03:51:44;;;;;;;21.80;13.13;;;;;;;;;;4954828;29;20895;-76
2021/03/23 03:54:10;;;;;;;25.30;13.30;;;;;;;;;;4954795;29;20304;-75
2021/03/23 03:56:36;;;;;;;21.25;13.05;;;;;;;;;;4954819;29;20476;-75
2021/03/23 04:02:05;;;;;;;16.65;11.15;;;;;;;;;;4954524;29;20899;-76
2021/03/23 04:04:31;;;;;;;19.77;12.18;;;;;;;;;;4954731;29;20563;-77
2021/03/23 04:06:57;;;;;;;17.53;11.90;;;;;;;;;;4954615;29;20231;-76
2021/03/23 04:09:23;;;;;;;18.57;13.10;;;;;;;;;;4954581;29;20501;-78
2021/03/23 04:11:49;;;;;;;25.13;13.80;;;;;;;;;;4954527;29;20436;-75
2021/03/23 04:17:19;;;;;;;23.77;13.50;;;;;;;;;;4954646;29;20494;-75
2021/03/23 04:19:45;;;;;;;24.43;13.87;;;;;;;;;;4937181;29;20195;-76
2021/03/23 04:22:11;;;;;;;22.77;12.87;;;;;;;;;;4954349;29;20480;-75
2021/03/23 04:24:37;;;;;;;25.20;13.90;;;;;;;;;;4954490;29;20419;-78
2021/03/23 04:27:03;;;;;;;22.65;13.60;;;;;;;;;;4954431;29;20426;-77
2021/03/23 04:32:32;;;;;;;25.23;15.18;;;;;;;;;;4954710;29;20232;-75
2021/03/23 04:34:58;;;;;;;22.58;14.82;;;;;;;;;;4954282;29;20210;-78
2021/03/23 04:37:24;;;;;;;21.73;14.23;;;;;;;;;;4954331;29;20173;-76
2021/03/23 04:39:50;;;;;;;25.00;15.25;;;;;;;;;;4954283;29;20414;-76
2021/03/23 04:42:16;;;;;;;25.17;15.50;;;;;;;;;;4954126;29;20215;-76
2021/03/23 04:44:42;;;;;;;23.52;13.95;;;;;;;;;;4954415;29;20266;-76
2021/03/23 04:47:08;;;;;;;25.90;14.67;;;;;;;;;;4954160;29;20214;-77
2021/03/23 04:49:34;;;;;;;25.73;14.97;;;;;;;;;;4954244;29;20410;-77
2021/03/23 04:52:01;;;;;;;29.05;14.60;;;;;;;;;;4954067;29;20473;-78
2021/03/23 04:54:27;;;;;;;24.70;14.07;;;;;;;;;;4954110;29;20272;-78
2021/03/23 04:56:53;;;;;;;21.90;13.97;;;;;;;;;;4954343;29;20271;-77
2021/03/23 05:02:23;;;;;;;21.20;14.77;;;;;;;;;;4953965;29;20637;-78
2021/03/23 05:04:49;;;;;;;29.67;15.55;;;;;;;;;;4954232;29;20254;-74
2021/03/23 05:07:15;;;;;;;22.17;14.88;;;;;;;;;;4954224;29;20215;-80
2021/03/23 05:09:41;;;;;;;29.08;15.77;;;;;;;;;;4954459;28;20177;-76
2021/03/23 05:12:07;;;;;;;20.30;13.50;;;;;;;;;;4957694;29;20178;-76
2021/03/23 05:17:37;;;;;;;19.88;13.68;;;;;;;;;;4958187;29;20187;-78
2021/03/23 05:20:05;;;;;;;21.10;14.70;;;;;;;;;;4958336;29;20175;-76
2021/03/23 05:22:31;;;;;;;20.50;14.65;;;;;;;;;;4957944;29;20213;-81
2021/03/23 05:24:57;;;;;;;20.60;14.43;;;;;;;;;;4957642;29;20258;-81
2021/03/23 05:27:23;;;;;;;23.33;14.40;;;;;;;;;;4957550;29;20434;-75
2021/03/23 05:29:49;;;;;;;27.77;15.10;;;;;;;;;;4957906;29;20429;-79
2021/03/23 05:32:15;;;;;;;23.13;14.20;;;;;;;;;;4958183;29;20423;-76
2021/03/23 05:34:41;;;;;;;22.85;13.90;;;;;;;;;;4958197;29;20171;-79
2021/03/23 05:37:07;;;;;;;23.40;15.23;;;;;;;;;;4957836;29;20170;-80
2021/03/23 05:39:33;;;;;;;24.67;15.03;;;;;;;;;;4958084;29;20189;-76
2021/03/23 05:42:03;;;;;;;24.60;15.63;;;;;;;;;;4957993;29;20478;-77
2021/03/23 05:47:37;;;;;;;22.90;13.82;;;;;;;;;;4958126;29;20181;-79
2021/03/23 05:50:18;;;;;;;19.38;12.93;;;;;;;;;;4957889;29;20301;-78
2021/03/23 05:52:46;;;;;;;30.55;15.90;;;;;;;;;;4957586;29;20232;-77
2021/03/23 05:55:24;;;;;;;25.20;14.63;;;;;;;;;;4957448;29;20173;-74
2021/03/23 05:57:52;;;;;;;20.42;14.02;;;;;;;;;;4957537;29;20182;-79
2021/03/23 06:00:29;;;;;;;23.63;14.60;;;;;;;;;;4957595;29;20174;-78
2021/03/23 06:03:21;;;;;;;27.55;14.63;;;;;;;;;;4957386;29;20190;-77
2021/03/23 06:05:48;;;;;;;26.20;15.00;;;;;;;;;;4953909;29;20197;-77
2021/03/23 06:08:21;;;;;;;28.05;16.15;;;;;;;;;;4957083;29;20208;-76
2021/03/23 06:10:47;;;;;;;21.80;13.73;;;;;;;;;;4957041;29;20162;-79
2021/03/23 06:13:32;;;;;;;24.17;15.95;;;;;;;;;;4957166;29;20176;-78
2021/03/23 06:16:04;;;;;;;21.58;15.45;;;;;;;;;;4957500;29;20258;-76
2021/03/23 06:18:34;;;;;;;23.35;14.85;;;;;;;;;;4957174;29;20227;-76
2021/03/23 06:21:04;;;;;;;27.10;14.95;;;;;;;;;;4957002;28;20571;-79
2021/03/23 06:23:35;;;;;;;25.58;15.68;;;;;;;;;;4956074;29;20254;-78
2021/03/23 06:26:04;;;;;;;24.55;16.10;;;;;;;;;;4957392;29;20214;-79
2021/03/23 06:28:53;;;;;;;27.52;15.90;;;;;;;;;;4939377;29;20723;-80
2021/03/23 06:31:19;;;;;;;23.05;14.50;;;;;;;;;;4956826;29;20173;-76
2021/03/23 06:33:45;;;;;;;27.23;16.60;;;;;;;;;;4956966;29;20175;-76
2021/03/23 06:36:25;;;;;;;28.25;17.00;;;;;;;;;;4956533;29;20532;-78
2021/03/23 06:38:51;;;;;;;26.30;15.90;;;;;;;;;;4956297;29;20178;-78
2021/03/23 06:41:17;;;;;;;23.73;15.10;;;;;;;;;;4956811;29;20250;-79
2021/03/23 06:44:04;;;;;;;26.70;15.75;;;;;;;;;;4956306;29;20411;-77
2021/03/23 06:46:33;;;;;;;33.50;16.13;;;;;;;;;;4942825;29;20199;-80
2021/03/23 06:49:11;;;;;;;30.40;16.90;;;;;;;;;;4956105;29;20260;-78
2021/03/23 06:51:37;;;;;;;24.27;16.20;;;;;;;;;;4955899;29;20222;-78
2021/03/23 06:54:15;;;;;;;25.67;15.95;;;;;;;;;;4956090;29;20233;-78
2021/03/23 06:56:41;;;;;;;30.65;14.90;;;;;;;;;;4956183;29;20204;-79
2021/03/23 06:59:17;;;;;;;26.67;16.40;;;;;;;;;;4937627;29;20278;-78
2021/03/23 07:02:00;;;;;;;24.90;15.40;;;;;;;;;;4954857;29;20482;-76
2021/03/23 07:04:34;;;;;;;28.15;16.38;;;;;;;;;;4955706;29;20172;-77
2021/03/23 07:07:19;;;;;;;26.33;16.30;;;;;;;;;;4956582;29;20174;-76
2021/03/23 07:09:48;;;;;;;31.38;17.08;;;;;;;;;;4955780;29;20175;-77
2021/03/23 07:12:14;;;;;;;26.40;16.20;;;;;;;;;;4955933;29;20200;-75
2021/03/23 07:14:43;;;;;;;26.05;17.85;;;;;;;;;;4955423;29;20248;-75
2021/03/23 07:17:09;;;;;;;25.77;16.15;;;;;;;;;;4955297;29;20174;-75
2021/03/23 07:19:44;;;;;;;24.67;15.52;;;;;;;;;;4955535;29;20182;-75
2021/03/23 07:22:14;;;;;;;27.98;16.67;;;;;;;;;;4955353;29;20242;-78
2021/03/23 07:24:49;;;;;;;27.67;17.52;;;;;;;;;;4955749;29;20214;-77
2021/03/23 07:27:18;;;;;;;26.48;16.20;;;;;;;;;;4937999;29;20229;-76
2021/03/23 07:29:44;;;;;;;25.50;15.90;;;;;;;;;;4955084;29;20258;-76
2021/03/23 07:32:29;;;;;;;34.03;16.73;;;;;;;;;;4954868;29;20446;-77
2021/03/23 07:34:58;;;;;;;31.60;15.57;;;;;;;;;;4952834;28;20509;-78
2021/03/23 07:37:44;;;;;;;29.02;17.00;;;;;;;;;;4952257;29;20168;-79
2021/03/23 07:40:16;;;;;;;44.90;23.45;;;;;;;;;;4952876;29;20168;-80
2021/03/23 07:42:56;;;;;;;46.25;19.60;;;;;;;;;;4952668;29;20218;-80
2021/03/23 07:45:27;;;;;;;29.63;17.55;;;;;;;;;;4952856;29;20253;-80
2021/03/23 07:48:00;;;;;;;31.77;17.88;;;;;;;;;;4952636;29;20178;-76
2021/03/23 07:50:33;;;;;;;30.13;19.67;;;;;;;;;;4952586;29;20179;-77
2021/03/23 07:53:05;;;;;;;32.50;19.05;;;;;;;;;;4935042;29;20234;-76
2021/03/23 07:55:32;;;;;;;28.50;17.10;;;;;;;;;;4952616;29;20254;-77
2021/03/23 08:01:07;;;;;;;24.90;15.90;;;;;;;;;;4953440;29;20886;-77
2021/03/23 08:04:11;;;;;;;32.63;18.87;;;;;;;;;;4953389;29;20199;-79
2021/03/23 08:06:37;;;;;;;22.88;16.50;;;;;;;;;;4876854;29;20441;-81
2021/03/23 08:09:11;;;;;;;28.87;16.80;;;;;;;;;;4875676;29;20187;-78
2021/03/23 08:11:56;;;;;;;26.92;16.75;;;;;;;;;;4874894;29;20463;-78
2021/03/23 08:17:40;;;;;;;31.03;19.27;;;;;;;;;;4874809;29;20207;-78
2021/03/23 08:20:24;;;;;;;30.02;18.45;;;;;;;;;;4874717;29;20430;-80
2021/03/23 08:23:00;;;;;;;26.38;17.67;;;;;;;;;;4874772;29;20753;-77
2021/03/23 08:25:42;;;;;;;28.92;15.80;;;;;;;;;;4875488;29;20197;-79
2021/03/23 08:28:11;;;;;;;26.07;17.00;;;;;;;;;;4875666;29;20642;-76
2021/03/23 08:33:50;;;;;;;26.60;15.33;;;;;;;;;;4876179;29;20476;-83
2021/03/23 08:36:35;;;;;;;29.27;17.50;;;;;;;;;;4879997;29;20433;-77
2021/03/23 08:39:01;;;;;;;30.63;16.73;;;;;;;;;;4952040;29;21014;-77
2021/03/23 08:41:46;;;;;;;27.53;16.53;;;;;;;;;;4951885;29;20467;-80
2021/03/23 08:44:25;;;;;;;24.03;16.20;;;;;;;;;;4952663;28;20410;-78
2021/03/23 08:46:51;;;;;;;29.67;17.10;;;;;;;;;;4955762;29;20421;-78
2021/03/23 08:49:18;;;;;;;29.13;17.00;;;;;;;;;;4956749;29;20435;-76
2021/03/23 08:51:47;;;;;;;28.60;17.83;;;;;;;;;;4939317;29;20838;-80
2021/03/23 08:54:35;;;;;;;29.70;17.17;;;;;;;;;;4956674;29;20913;-80
2021/03/23 08:57:01;;;;;;;22.20;15.03;;;;;;;;;;4956560;29;20439;-77
2021/03/23 08:59:34;;;;;;;28.50;16.93;;;;;;;;;;4956224;29;20415;-76
2021/03/23 09:02:00;;;;;;;24.40;15.20;;;;;;;;;;4956836;29;20482;-78
2021/03/23 09:04:34;;;;;;;21.80;13.00;;;;;;;;;;4957134;29;20415;-78
2021/03/23 09:07:02;;;;;;;25.27;14.83;;;;;;;;;;4956382;29;20416;-76
2021/03/23 09:09:31;;;;;;;23.70;14.90;;;;;;;;;;4953026;29;20423;-76
2021/03/23 09:12:12;;;;;;;32.57;15.83;;;;;;;;;;4953762;29;20434;-79
2021/03/23 09:14:57;;;;;;;27.30;14.47;;;;;;;;;;4955137;29;20871;-79
2021/03/23 09:17:41;;;;;;;20.63;13.93;;;;;;;;;;4956044;29;20478;-79
2021/03/23 09:20:26;;;;;;;23.50;13.70;;;;;;;;;;4956018;29;20889;-83
2021/03/23 09:22:52;;;;;;;20.90;12.60;;;;;;;;;;4938419;29;20873;-76
2021/03/23 09:25:24;;;;;;;24.10;13.83;;;;;;;;;;4955914;29;20419;-79
2021/03/23 09:27:50;;;;;;;21.97;13.00;;;;;;;;;;4955826;29;20428;-77
2021/03/23 09:30:35;;;;;;;18.50;12.80;;;;;;;;;;4955705;29;20412;-78
2021/03/23 09:33:17;;;;;;;17.70;11.37;;;;;;;;;;4938615;29;20435;-79
2021/03/23 09:36:02;;;;;;;18.47;12.80;;;;;;;;;;4955610;29;20442;-78
2021/03/23 09:38:34;;;;;;;20.00;12.50;;;;;;;;;;4955599;29;20446;-79
2021/03/23 09:41:04;;;;;;;15.90;10.23;;;;;;;;;;4955503;29;20459;-77
2021/03/23 09:43:36;;;;;;;15.43;9.20;;;;;;;;;;4955487;29;20763;-82
2021/03/23 09:46:04;;;;;;;16.57;9.40;;;;;;;;;;4938157;29;20434;-81
2021/03/23 09:48:30;;;;;;;15.33;10.30;;;;;;;;;;4955729;29;20980;-82
2021/03/23 09:50:56;;;;;;;19.53;11.07;;;;;;;;;;4955783;29;20423;-84
2021/03/23 09:53:37;;;;;;;16.63;9.87;;;;;;;;;;4955439;29;20918;-78
2021/03/23 09:56:05;;;;;;;17.93;11.20;;;;;;;;;;4954832;28;20629;-78
2021/03/23 09:58:31;;;;;;;22.67;12.13;;;;;;;;;;4937963;29;20435;-78
2021/03/23 10:01:11;;;;;;;18.13;11.30;;;;;;;;;;4955341;29;20459;-77
2021/03/23 10:03:38;;;;;;;19.77;11.10;;;;;;;;;;4955503;29;20886;-82
2021/03/23 10:06:06;;;;;;;18.27;11.10;;;;;;;;;;4937038;29;20427;-80
2021/03/23 10:08:34;;;;;;;23.07;10.63;;;;;;;;;;4954593;29;20416;-78
2021/03/23 10:11:07;;;;;;;18.67;11.57;;;;;;;;;;4954853;29;20427;-77
2021/03/23 10:13:33;;;;;;;18.73;12.57;;;;;;;;;;4937906;29;20494;-79
2021/03/23 10:16:04;;;;;;;20.50;13.57;;;;;;;;;;4954856;29;20423;-75
2021/03/23 10:18:31;;;;;;;19.00;10.80;;;;;;;;;;4954758;29;20418;-79
2021/03/23 10:21:00;;;;;;;16.30;9.50;;;;;;;;;;4955269;29;20907;-78
2021/03/23 10:23:27;;;;;;;15.87;10.77;;;;;;;;;;4954011;29;20432;-79
2021/03/23 10:25:53;;;;;;;17.07;9.67;;;;;;;;;;4954826;29;20412;-75
2021/03/23 10:28:35;;;;;;;16.20;8.90;;;;;;;;;;4954025;29;20487;-77
2021/03/23 10:31:03;;;;;;;14.97;9.23;;;;;;;;;;4953323;29;20439;-79
2021/03/23 10:33:30;;;;;;;18.77;9.33;;;;;;;;;;4953918;29;20442;-78
2021/03/23 10:36:05;;;;;;;15.60;9.23;;;;;;;;;;4954172;29;20418;-75
2021/03/23 10:38:32;;;;;;;17.50;9.63;;;;;;;;;;4953945;29;20494;-76
2021/03/23 10:41:18;;;;;;;13.80;7.53;;;;;;;;;;4953858;29;20494;-79
2021/03/23 10:43:45;;;;;;;16.23;10.20;;;;;;;;;;4953408;29;20797;-78
2021/03/23 10:46:28;;;;;;;19.93;11.83;;;;;;;;;;4953838;29;20969;-75
2021/03/23 10:49:10;;;;;;;12.67;7.97;;;;;;;;;;4954139;29;20450;-77
2021/03/23 10:51:39;;;;;;;11.27;7.07;;;;;;;;;;4953763;29;20554;-76
2021/03/23 10:54:07;;;;;;;10.80;7.33;;;;;;;;;;4953984;29;20420;-77
2021/03/23 10:56:35;;;;;;;13.00;8.30;;;;;;;;;;4936836;29;20439;-74
2021/03/23 10:59:07;;;;;;;12.33;9.10;;;;;;;;;;4953982;29;20420;-75
2021/03/23 11:01:33;;;;;;;18.13;9.27;;;;;;;;;;4953562;29;20486;-79
2021/03/23 11:04:10;;;;;;;15.13;7.70;;;;;;;;;;4953710;29;20427;-76
2021/03/23 11:06:37;;;;;;;12.00;8.87;;;;;;;;;;4954106;29;20449;-76
2021/03/23 11:09:07;;;;;;;10.07;7.07;;;;;;;;;;4952902;28;20427;-80
2021/03/23 11:11:34;;;;;;;15.47;8.37;;;;;;;;;;4953582;29;20525;-79
2021/03/23 11:14:00;;;;;;;11.67;8.53;;;;;;;;;;4953492;29;20441;-77
2021/03/23 11:16:28;;;;;;;12.77;8.47;;;;;;;;;;4953605;29;20482;-79
2021/03/23 11:18:58;;;;;;;17.40;10.23;;;;;;;;;;4953687;29;20518;-76
2021/03/23 11:21:24;;;;;;;15.20;8.63;;;;;;;;;;4953225;29;20467;-77
2021/03/23 11:23:51;;;;;;;14.87;8.50;;;;;;;;;;4935690;29;20453;-81
2021/03/23 11:26:22;;;;;;;15.40;10.00;;;;;;;;;;4953223;29;20432;-82
2021/03/23 11:28:53;;;;;;;16.67;10.70;;;;;;;;;;4954283;29;20786;-80
2021/03/23 11:31:19;;;;;;;13.13;9.00;;;;;;;;;;4954573;29;20487;-77
2021/03/23 11:33:45;;;;;;;16.23;9.90;;;;;;;;;;4954521;29;20502;-80
2021/03/23 11:36:11;;;;;;;12.40;8.03;;;;;;;;;;4954538;29;20420;-80
2021/03/23 11:38:38;;;;;;;12.63;8.27;;;;;;;;;;4954424;29;20819;-76
2021/03/23 11:41:05;;;;;;;13.23;7.60;;;;;;;;;;4953954;29;20459;-80
2021/03/23 11:43:35;;;;;;;11.30;8.17;;;;;;;;;;4954392;29;20533;-80
2021/03/23 11:46:04;;;;;;;13.80;8.73;;;;;;;;;;4954314;29;20483;-77
2021/03/23 11:48:35;;;;;;;11.93;7.50;;;;;;;;;;4937091;29;20435;-75
2021/03/23 11:51:01;;;;;;;13.13;8.53;;;;;;;;;;4936347;29;20521;-76
2021/03/23 11:53:30;;;;;;;13.27;7.77;;;;;;;;;;4953787;29;20428;-77
2021/03/23 11:55:56;;;;;;;11.93;8.07;;;;;;;;;;4953167;29;20415;-78
2021/03/23 11:58:25;;;;;;;12.33;8.70;;;;;;;;;;4952779;29;20411;-80
2021/03/23 12:00:51;;;;;;;11.13;7.50;;;;;;;;;;4952903;29;20434;-80
2021/03/23 12:03:17;;;;;;;13.40;7.97;;;;;;;;;;4952873;29;20475;-77
2021/03/23 12:05:43;;;;;;;13.40;9.10;;;;;;;;;;4951717;29;20420;-75
2021/03/23 12:08:24;;;;;;;13.23;8.50;;;;;;;;;;4950423;29;20478;-80
2021/03/23 12:11:05;;;;;;;23.20;9.00;;;;;;;;;;4952429;29;20430;-79
2021/03/23 12:13:45;;;;;;;13.13;7.93;;;;;;;;;;4934514;29;20431;-84
2021/03/23 12:16:21;;;;;;;12.60;7.73;;;;;;;;;;4952955;29;20768;-78
2021/03/23 12:18:55;;;;;;;14.33;8.23;;;;;;;;;;4935322;29;20434;-77
2021/03/23 12:21:26;;;;;;;15.10;7.70;;;;;;;;;;4952798;29;20455;-81
2021/03/23 12:23:52;;;;;;;12.43;8.00;;;;;;;;;;4934451;29;20443;-74
2021/03/23 12:26:18;;;;;;;14.73;9.37;;;;;;;;;;4952583;29;20501;-75
2021/03/23 12:28:44;;;;;;;16.50;8.93;;;;;;;;;;4952667;29;20515;-75
2021/03/23 12:31:11;;;;;;;12.98;8.32;;;;;;;;;;4953116;29;20926;-75
2021/03/23 12:33:38;;;;;;;11.63;7.43;;;;;;;;;;4952906;29;20199;-81
2021/03/23 12:36:06;;;;;;;10.37;7.10;;;;;;;;;;4954656;29;20423;-84
2021/03/23 12:38:34;;;;;;;11.10;7.07;;;;;;;;;;4954305;29;20411;-83
2021/03/23 12:41:01;;;;;;;13.00;8.60;;;;;;;;;;4954072;29;20456;-80
2021/03/23 12:43:28;;;;;;;11.57;7.40;;;;;;;;;;4954808;29;20790;-84
2021/03/23 12:45:57;;;;;;;12.03;7.37;;;;;;;;;;4955626;29;20404;-80
2021/03/23 12:48:23;;;;;;;15.33;7.23;;;;;;;;;;4954028;29;20419;-82
2021/03/23 12:50:50;;;;;;;18.23;8.30;;;;;;;;;;4954616;29;20434;-83
2021/03/23 12:53:17;;;;;;;15.63;6.60;;;;;;;;;;4956397;29;20538;-81
2021/03/23 12:55:45;;;;;;;11.80;6.93;;;;;;;;;;4956471;29;20420;-79
2021/03/23 12:58:15;;;;;;;12.53;7.70;;;;;;;;;;4955300;29;20417;-79
2021/03/23 13:00:42;;;;;;;12.07;8.00;;;;;;;;;;4955741;29;20486;-80
2021/03/23 13:03:16;;;;;;;10.60;7.20;;;;;;;;;;4960861;29;20536;-83
2021/03/23 13:05:46;;;;;;;14.13;9.37;;;;;;;;;;4943630;29;20434;-80
2021/03/23 13:08:37;;;;;;;11.73;7.60;;;;;;;;;;4954284;29;20407;-83
2021/03/23 13:11:03;;;;;;;11.53;7.43;;;;;;;;;;4951784;29;20809;-76
2021/03/23 13:13:31;;;;;;;10.80;6.73;;;;;;;;;;4951555;29;20412;-76
2021/03/23 13:15:57;;;;;;;10.80;7.00;;;;;;;;;;4951440;29;20424;-79
2021/03/23 13:18:24;;;;;;;22.60;8.10;;;;;;;;;;4952981;29;20420;-78
2021/03/23 13:20:51;;;;;;;11.73;7.33;;;;;;;;;;4956875;29;20412;-83
2021/03/23 13:23:30;;;;;;;12.13;8.73;;;;;;;;;;4936687;29;20474;-78
2021/03/23 13:25:58;;;;;;;11.23;6.50;;;;;;;;;;4953342;29;20911;-82
2021/03/23 13:28:28;;;;;;;9.60;5.67;;;;;;;;;;4953708;29;20431;-75
2021/03/23 13:30:54;;;;;;;11.20;6.70;;;;;;;;;;4952799;28;20423;-78
2021/03/23 13:33:20;;;;;;;17.83;8.03;;;;;;;;;;4956863;29;20419;-76
2021/03/23 13:35:46;;;;;;;9.70;6.33;;;;;;;;;;4956799;29;20419;-81
2021/03/23 13:38:17;;;;;;;9.93;6.77;;;;;;;;;;4956488;29;20537;-78
2021/03/23 13:40:45;;;;;;;9.20;6.73;;;;;;;;;;4956175;29;20475;-75
2021/03/23 13:43:15;;;;;;;9.40;6.20;;;;;;;;;;4956725;29;20420;-81
2021/03/23 13:51:51;;;;;;;11.67;6.67;;;;;;;;;;4955686;28;20506;-77
2021/03/23 13:54:17;;;;;;;12.07;6.77;;;;;;;;;;4938874;29;20439;-76
2021/03/23 13:56:43;;;;;;;11.83;7.83;;;;;;;;;;4956423;29;20481;-76
2021/03/23 13:59:16;;;;;;;14.80;8.03;;;;;;;;;;4956120;29;20614;-75
2021/03/23 14:01:42;;;;;;;10.43;7.03;;;;;;;;;;4956233;29;20987;-75
2021/03/23 14:04:08;;;;;;;9.77;6.77;;;;;;;;;;4939413;29;20431;-75
2021/03/23 14:06:34;;;;;;;9.20;7.07;;;;;;;;;;4956367;29;20424;-76
2021/03/23 14:09:03;;;;;;;11.87;6.90;;;;;;;;;;4956868;29;20434;-76
2021/03/23 14:11:29;;;;;;;12.13;7.97;;;;;;;;;;4958411;29;20437;-75
2021/03/23 14:13:55;;;;;;;12.17;8.40;;;;;;;;;;4955773;29;20858;-75
2021/03/23 14:16:21;;;;;;;11.20;7.07;;;;;;;;;;4956375;29;20424;-76
2021/03/23 14:18:47;;;;;;;15.73;8.13;;;;;;;;;;4957937;29;20891;-75
2021/03/23 14:21:23;;;;;;;14.80;6.77;;;;;;;;;;4956822;29;20509;-78
2021/03/23 14:23:50;;;;;;;9.50;6.10;;;;;;;;;;4956329;29;20439;-78
2021/03/23 14:26:17;;;;;;;13.33;7.93;;;;;;;;;;4953537;29;20447;-74
2021/03/23 14:28:49;;;;;;;13.37;8.17;;;;;;;;;;4953847;29;20882;-75
2021/03/23 14:31:16;;;;;;;13.40;7.60;;;;;;;;;;4952668;29;20427;-77
2021/03/23 14:33:42;;;;;;;16.50;9.23;;;;;;;;;;4953284;29;20421;-78
2021/03/23 14:36:08;;;;;;;11.03;6.50;;;;;;;;;;4953032;29;20427;-79
2021/03/23 14:38:36;;;;;;;9.30;7.27;;;;;;;;;;4952854;29;20421;-78
2021/03/23 14:41:05;;;;;;;10.40;7.07;;;;;;;;;;4953146;29;20431;-79
2021/03/23 14:43:32;;;;;;;10.03;6.93;;;;;;;;;;4952353;28;20424;-78
2021/03/23 14:45:58;;;;;;;17.53;7.20;;;;;;;;;;4953541;29;20496;-81
2021/03/23 14:51:29;;;;;;;12.80;8.17;;;;;;;;;;4954209;28;21671;-79
2021/03/23 14:53:57;;;;;;;9.67;7.53;;;;;;;;;;4955626;29;20752;-80
2021/03/23 14:56:26;;;;;;;11.27;7.67;;;;;;;;;;4956233;29;20411;-79
2021/03/23 14:58:52;;;;;;;10.57;7.63;;;;;;;;;;4955168;29;20883;-81
2021/03/23 15:01:18;;;;;;;10.63;6.97;;;;;;;;;;4953611;29;20614;-82
2021/03/23 15:06:47;;;;;;;11.43;7.20;;;;;;;;;;4956332;29;20415;-86
2021/03/23 15:09:15;;;;;;;13.33;8.00;;;;;;;;;;4935832;29;20463;-82
2021/03/23 15:11:42;;;;;;;11.63;7.53;;;;;;;;;;4954991;29;21107;-80
2021/03/23 15:14:09;;;;;;;10.23;8.20;;;;;;;;;;4953825;29;20403;-80
2021/03/23 15:16:35;;;;;;;13.10;7.43;;;;;;;;;;4953466;29;20428;-81
2021/03/23 15:19:01;;;;;;;11.20;6.20;;;;;;;;;;4953212;29;20416;-81
2021/03/23 15:21:32;;;;;;;15.67;7.53;;;;;;;;;;4953871;29;20463;-81
2021/03/23 15:23:59;;;;;;;10.73;7.77;;;;;;;;;;4953793;29;20430;-82
2021/03/23 15:26:33;;;;;;;11.00;7.93;;;;;;;;;;4953633;29;20420;-81
2021/03/23 15:29:01;;;;;;;11.63;7.07;;;;;;;;;;4936367;29;20502;-82
2021/03/23 15:31:27;;;;;;;10.30;7.87;;;;;;;;;;4953424;29;20412;-80
2021/03/23 15:36:57;;;;;;;10.17;7.27;;;;;;;;;;4958294;29;20426;-86
2021/03/23 15:39:26;;;;;;;14.10;8.37;;;;;;;;;;4957437;29;20439;-86
2021/03/23 15:42:03;;;;;;;12.70;8.10;;;;;;;;;;4958079;29;20954;-82
2021/03/23 15:44:30;;;;;;;9.10;7.00;;;;;;;;;;4938736;29;20438;-83
2021/03/23 15:46:56;;;;;;;11.33;7.80;;;;;;;;;;4955896;29;20939;-83